Latest Weather Observations for Sydney Harbour

IDN60901

Issued at 5:45 am EST Thursday 17 April 2014 (issued every 10 minutes, with the page automatically refreshed every 10 minutes)

About weather observations | Map of Sydney area stations | Latest observations for Sydney area | Other Formats
Station Details ID: 066196 Name: WEDDING CAKE WEST Lat: -33.84 Lon: 151.26 Height: 6.0 m
Data from the previous 72 hours. | See also: Recent months for locations in New South Wales
Date/Time
EST
Tmp

°C
App
Tmp
°C
Dew
Point
°C
Rel
Hum
%
Delta-T

°C
Wind Press
QNH
hPa
Press
MSL
hPa
Rain
since
9 am
mm
Dir
 
Spd
km/h
Gust
km/h
Spd
kts
Gust
kts
17/05:30am 15.2 - - - - W 30 35 16 19 - - -
17/05:00am 15.4 - - - - W 30 35 16 19 - - -
17/04:30am 15.7 - - - - W 30 35 16 19 - - -
17/04:00am 15.5 - - - - W 28 33 15 18 - - -
17/03:30am 15.7 - - - - W 30 35 16 19 - - -
17/03:00am 15.7 - - - - W 28 33 15 18 - - -
17/02:30am 15.9 - - - - W 24 30 13 16 - - -
17/02:00am 16.2 - - - - W 24 32 13 17 - - -
17/01:30am 16.4 - - - - W 26 33 14 18 - - -
17/01:00am 16.6 - - - - W 22 26 12 14 - - -
17/12:30am 16.7 - - - - W 22 30 12 16 - - -
17/12:00am 16.9 - - - - W 24 30 13 16 - - -
 
Date/Time
EST
Tmp

°C
App
Tmp
°C
Dew
Point
°C
Rel
Hum
%
Delta-T

°C
Wind Press
QNH
hPa
Press
MSL
hPa
Rain
since
9 am
mm
Dir
 
Spd
km/h
Gust
km/h
Spd
kts
Gust
kts
16/11:30pm 17.7 - - - - W 22 28 12 15 - - -
16/11:00pm 18.1 - - - - W 24 28 13 15 - - -
16/10:30pm 18.1 - - - - W 22 26 12 14 - - -
16/10:00pm 18.4 - - - - W 20 24 11 13 - - -
16/09:30pm 18.9 - - - - W 20 26 11 14 - - -
16/09:00pm 19.6 - - - - WSW 24 28 13 15 - - -
16/08:30pm 20.4 - - - - SW 20 26 11 14 - - -
16/08:00pm 20.6 - - - - SSW 24 32 13 17 - - -
16/07:30pm 20.7 - - - - SSW 26 32 14 17 - - -
16/07:00pm 20.4 - - - - SSW 26 33 14 18 - - -
16/06:30pm 20.3 - - - - SSW 28 35 15 19 - - -
16/06:00pm 20.3 - - - - S 26 32 14 17 - - -
16/05:30pm 20.3 - - - - SSW 30 35 16 19 - - -
16/05:00pm 20.2 - - - - S 28 35 15 19 - - -
16/04:30pm 20.4 - - - - S 37 44 20 24 - - -
16/04:00pm 20.5 - - - - S 33 43 18 23 - - -
16/03:30pm 20.6 - - - - S 33 39 18 21 - - -
16/03:00pm 20.5 - - - - S 35 43 19 23 - - -
16/02:30pm 20.5 - - - - S 33 44 18 24 - - -
16/02:00pm 20.4 - - - - SSW 32 39 17 21 - - -
16/01:30pm 20.1 - - - - SSW 32 39 17 21 - - -
16/01:00pm 20.1 - - - - SSW 32 39 17 21 - - -
16/12:30pm 19.8 - - - - S 33 46 18 25 - - -
16/12:00pm 19.9 - - - - SSW 35 43 19 23 - - -
16/11:30am 19.6 - - - - SSW 35 43 19 23 - - -
16/11:00am 19.2 - - - - SSW 37 43 20 23 - - -
16/10:30am 19.4 - - - - SSW 35 43 19 23 - - -
16/10:00am 19.3 - - - - SW 32 41 17 22 - - -
16/09:30am 18.4 - - - - WSW 20 30 11 16 - - -
16/09:00am 17.4 - - - - W 22 30 12 16 - - -
16/08:30am 17.1 - - - - W 20 26 11 14 - - -
16/08:00am 16.7 - - - - W 19 24 10 13 - - -
16/07:30am 16.4 - - - - W 22 28 12 15 - - -
16/07:00am 16.0 - - - - W 22 26 12 14 - - -
16/06:30am 16.2 - - - - W 22 28 12 15 - - -
16/06:00am 16.3 - - - - W 22 28 12 15 - - -
16/05:30am 16.3 - - - - W 19 24 10 13 - - -
16/05:00am 16.0 - - - - W 20 26 11 14 - - -
16/04:30am 16.8 - - - - WSW 24 32 13 17 - - -
16/04:00am 16.8 - - - - WSW 19 24 10 13 - - -
16/03:30am 16.6 - - - - WSW 26 32 14 17 - - -
16/03:00am 17.3 - - - - WSW 28 35 15 19 - - -
16/02:30am 17.7 - - - - SW 33 39 18 21 - - -
16/02:00am 18.0 - - - - WSW 28 32 15 17 - - -
16/01:30am 18.2 - - - - SW 30 35 16 19 - - -
16/01:00am 17.8 - - - - SW 26 32 14 17 - - -
16/12:30am 17.7 - - - - SW 28 33 15 18 - - -
16/12:00am 17.6 - - - - SW 26 32 14 17 - - -
 
Date/Time
EST
Tmp

°C
App
Tmp
°C
Dew
Point
°C
Rel
Hum
%
Delta-T

°C
Wind Press
QNH
hPa
Press
MSL
hPa
Rain
since
9 am
mm
Dir
 
Spd
km/h
Gust
km/h
Spd
kts
Gust
kts
15/11:30pm 17.5 - - - - SW 32 37 17 20 - - -
15/11:00pm 17.6 - - - - SW 37 44 20 24 - - -
15/10:30pm 17.1 - - - - WSW 22 33 12 18 - - -
15/10:00pm 18.1 - - - - SSW 24 30 13 16 - - -
15/09:30pm 17.9 - - - - SSW 32 41 17 22 - - -
15/09:00pm 17.8 - - - - S 35 46 19 25 - - -
15/08:30pm 18.0 - - - - S 35 44 19 24 - - -
15/08:00pm 17.4 - - - - S 35 46 19 25 - - -
15/07:45pm 17.4 - - - - S 30 54 16 29 - - -
15/07:30pm 17.5 - - - - S 22 43 12 23 - - -
15/07:00pm 17.3 - - - - SW 24 32 13 17 - - -
15/06:30pm 17.9 - - - - SSW 30 35 16 19 - - -
15/06:15pm 16.8 - - - - S 28 52 15 28 - - -
15/06:00pm 17.9 - - - - S 26 33 14 18 - - -
15/05:30pm 19.1 - - - - SSW 22 32 12 17 - - -
15/05:00pm 19.2 - - - - S 24 32 13 17 - - -
15/04:30pm 18.8 - - - - S 26 35 14 19 - - -
15/04:00pm 18.6 - - - - S 39 50 21 27 - - -
15/03:30pm 19.5 - - - - S 35 44 19 24 - - -
15/03:19pm 19.6 - - - - SSE 39 46 21 25 - - -
15/03:08pm 20.1 - - - - S 35 54 19 29 - - -
15/03:00pm 20.0 - - - - SSW 35 46 19 25 - - -
15/02:30pm 20.5 - - - - SSW 39 52 21 28 - - -
15/02:00pm 20.3 - - - - SSW 33 48 18 26 - - -
15/01:30pm 20.3 - - - - SSW 35 43 19 23 - - -
15/01:00pm 20.1 - - - - SW 30 41 16 22 - - -
15/12:30pm 20.0 - - - - SSW 28 35 15 19 - - -
15/12:00pm 19.9 - - - - SSW 28 37 15 20 - - -
15/11:30am 19.7 - - - - SW 26 32 14 17 - - -
15/11:00am 19.4 - - - - SSW 26 30 14 16 - - -
15/10:30am 19.1 - - - - WSW 20 26 11 14 - - -
15/10:00am 18.5 - - - - SW 22 26 12 14 - - -
15/09:30am 18.0 - - - - WSW 22 30 12 16 - - -
15/09:00am 17.5 - - - - W 24 32 13 17 - - -
15/08:30am 16.8 - - - - W 26 32 14 17 - - -
15/08:00am 16.2 - - - - W 26 32 14 17 - - -
15/07:30am 15.5 - - - - W 26 30 14 16 - - -
15/07:00am 15.8 - - - - W 24 28 13 15 - - -
15/06:30am 15.8 - - - - W 24 32 13 17 - - -
15/06:00am 16.0 - - - - W 26 32 14 17 - - -
15/05:30am 16.3 - - - - W 26 32 14 17 - - -
15/05:00am 16.1 - - - - W 20 28 11 15 - - -
15/04:30am 16.2 - - - - W 24 32 13 17 - - -
15/04:00am 16.2 - - - - W 24 30 13 16 - - -
15/03:30am 16.3 - - - - W 28 32 15 17 - - -
15/03:00am 16.9 - - - - W 24 30 13 16 - - -
15/02:30am 17.4 - - - - W 17 20 9 11 - - -
15/02:00am 17.8 - - - - WSW 22 30 12 16 - - -
15/01:30am 17.4 - - - - WSW 13 19 7 10 - - -
15/01:00am 17.3 - - - - WSW 17 20 9 11 - - -
15/12:30am 17.2 - - - - W 19 22 10 12 - - -
15/12:00am 17.1 - - - - W 17 24 9 13 - - -
 
Date/Time
EST
Tmp

°C
App
Tmp
°C
Dew
Point
°C
Rel
Hum
%
Delta-T

°C
Wind Press
QNH
hPa
Press
MSL
hPa
Rain
since
9 am
mm
Dir
 
Spd
km/h
Gust
km/h
Spd
kts
Gust
kts
14/11:30pm 17.2 - - - - W 11 13 6 7 - - -
14/11:00pm 17.7 - - - - W 20 26 11 14 - - -
14/10:30pm 18.1 - - - - W 22 30 12 16 - - -
14/10:00pm 17.3 - - - - W 19 24 10 13 - - -
14/09:30pm 17.4 - - - - W 20 26 11 14 - - -
14/09:00pm 17.9 - - - - WSW 17 22 9 12 - - -
14/08:30pm 17.7 - - - - W 17 20 9 11 - - -
14/08:00pm 17.4 - - - - W 17 20 9 11 - - -
14/07:30pm 17.4 - - - - SW 24 30 13 16 - - -
14/07:00pm 17.9 - - - - SW 26 32 14 17 - - -
14/06:30pm 18.1 - - - - SSW 28 35 15 19 - - -
14/06:00pm 18.6 - - - - SSW 30 35 16 19 - - -
14/05:30pm 18.4 - - - - SSW 26 35 14 19 - - -
14/05:10pm 18.8 - - - - SW 33 52 18 28 - - -
14/05:00pm 18.9 - - - - SW 30 39 16 21 - - -
14/04:30pm 18.6 - - - - SW 30 35 16 19 - - -
14/04:00pm 18.7 - - - - SSW 32 37 17 20 - - -
14/03:30pm 18.7 - - - - SSW 28 35 15 19 - - -
14/03:00pm 18.5 - - - - SSW 24 32 13 17 - - -
14/02:30pm 18.2 - - - - SSW 32 41 17 22 - - -
14/02:00pm 18.1 - - - - SSW 33 41 18 22 - - -
14/01:30pm 17.6 - - - - SSW 26 35 14 19 - - -
14/01:00pm 17.6 - - - - SSW 35 46 19 25 - - -
14/12:30pm 17.3 - - - - SW 26 32 14 17 - - -
14/12:00pm 18.0 - - - - SSW 39 50 21 27 - - -
14/11:30am 18.2 - - - - SSW 32 35 17 19 - - -
14/11:00am 18.1 - - - - SSW 32 39 17 21 - - -
14/10:30am 18.5 - - - - SSW 32 43 17 23 - - -
14/10:00am 17.6 - - - - SSW 35 43 19 23 - - -
14/09:30am 17.8 - - - - SW 30 39 16 21 - - -
14/09:00am 16.9 - - - - W 22 32 12 17 - - -
14/08:30am 16.7 - - - - W 20 26 11 14 - - -
14/08:00am 15.6 - - - - W 19 26 10 14 - - -
14/07:30am 15.6 - - - - W 20 24 11 13 - - -
14/07:00am 15.4 - - - - W 22 28 12 15 - - -
14/06:30am 15.4 - - - - W 22 32 12 17 - - -
14/06:00am 15.8 - - - - W 22 28 12 15 - - -

Latest Capital City Observations: Canberra | Sydney | Melbourne | Brisbane | Adelaide | Perth | Hobart | Darwin

Other Formats:

Comma delimited format used in spreadsheet applications
http://www.bom.gov.au/fwo/IDN60901/IDN60901.95766.axf

JavaScript Object Notation format (JSON) in row-major order
http://www.bom.gov.au/fwo/IDN60901/IDN60901.95766.json